Details From EGSS - London Stansted
To GCGM - La Gomera
Flight Number -
Tags Decoded
Created
Modified
Stats Distance 1,674 nm / 3,101 km
Max Altitude 0 ft / 0 m
Waypoints 7
Social Downloads 1
Likes 0
Share VATSIM

Download

Looking for another format? Having issues loading an existing format? Contact us
Advertisement - Login to hide

Notes

Decoded

Route

EGSS BASIK VGO ARACO DEPIS GOMER GCGM

ID Type Via Altitude Latitude Longitude Leg Dist Tot Dist Heading (true) Name
O EGSS APT - 0 ft / 0 m 51.87508˚ 0.21993˚ - 0 nm - -
BASIK FIX - 0 ft / 0 m 48.95361˚ -2.95111˚ 213 nm 213 nm 216° / 213° -
VGO VOR - 0 ft / 0 m 42.32131˚ -8.60164˚ 463 nm 676 nm 213° / 209° VIGO VOR-DME
ARACO FIX - 0 ft / 0 m 28.42618˚ -17.45140˚ 939 nm 1615 nm 210° / 205° -
DEPIS FIX - 0 ft / 0 m 28.18608˚ -17.82015˚ 24 nm 1639 nm 234° / 233° -
GOMER FIX - 0 ft / 0 m 28.00000˚ -17.33333˚ 28 nm 1668 nm 113° / 114° -
O GCGM APT - 0 ft / 0 m 28.02859˚ -17.22214˚ 6 nm 1674 nm 74° / 74° -

Altitude Profile

Advertisement - Login to hide

Weather


0- 5 10 15 20 25 30 35+ Temperature / ° C

Clouds and Precipitation
Forecast for 2018-05-24 12:00 UTC. Updated 2 hours ago

Ground ~20,000 ft ~40,000 ft Winds

EGSS

Details ICAO EGSS (STN)
Name London Stansted
Region United Kingdom
Timezone Europe/London (UTC+1.0)
Stats Elevation 348 ft / 106 m (AMSL)
Location 51.885097° 0.234962°
Runways 1
Magnetic Variation 0.297° W

METAR

EGSS 241220Z AUTO 03011KT 9999 NCD 23/13 Q1019

Decode

TAF

TAF EGSS 241108Z 2412/2518 02008KT 9999 SCT025 TEMPO 2415/2507 6000 SHRA PROB30 TEMPO 2416/2502 3000 +SHRA BECMG 2423/2502 7000 BKN007 TEMPO 2423/2509 3000 BR BKN003 PROB40 2501/2507 0300 FG BKN001 BECMG 2509/2512 9999 SCT017

Decode

Departure Runways

ID Width Length Bearing (true) Bearing (mag) Surface Threshold Offset Overrun Length
04 151 ft / 46 m 10,011 ft / 3,052 m 42.79° 43.09° Asphalt 994 ft / 303 m 0 ft / 0 m
22 151 ft / 46 m 10,011 ft / 3,052 m 222.81° 223.11° Asphalt 0 ft / 0 m 0 ft / 0 m

GCGM

Details ICAO GCGM (GMZ)
Name La Gomera
Region Canary Islands
Timezone Atlantic/Canary (UTC+1.0)
Stats Elevation 715 ft / 218 m (AMSL)
Location 28.029627° -17.214603°
Runways 1
Magnetic Variation 5.307° W

METAR

GCGM 241230Z 23007KT 200V270 9999 BKN038 20/13 Q1020 RMK R09/24005KT 170V300 ARP/22005KT 160V280

Decode

TAF

TAF GCGM 240800Z 2409/2509 20006KT 9999 SCT040 TX22/2414Z TN17/2505Z

Decode

Destination Runways

ID Width Length Bearing (true) Bearing (mag) Surface Threshold Offset Overrun Length
09 98 ft / 30 m 4,914 ft / 1,498 m 81.17° 86.48° Asphalt 0 ft / 0 m 0 ft / 0 m
27 98 ft / 30 m 4,914 ft / 1,498 m 261.18° 266.49° Asphalt 0 ft / 0 m 0 ft / 0 m

Popular Alternatives